Terminal Aerodrome Forecast
Issued by NWS

Home | Current Version | Previous Version | Text Only | Print | Product List | Glossary On
Versions: 1 2 3 4 5 6 7 8 9 10 11 12 13 14 15 16 17 18 19
000
FTUS41 KPHI 291131
TAFMIV
TAF
KMIV 291131Z 2912/3012 08009KT P6SM SCT100
      TEMPO 2912/2914 BKN100
     FM291700 13006KT P6SM FEW250
     FM300600 12004KT 5SM BR BKN250=

USA.gov is the U.S. government's official web portal to all federal, state and local government web resources and services.